Bevent, Wisconsin
Current Conditions -  °F | °C
As of 10:35 PM on Friday 24 Oct 2014 (Local Time) from KCWA Reporting Station
Overcast Overcast  
Wind Chill: 12°   Ceiling: 600
Heat Index: 12°   Visibility: 7mi
Dew Point: 12°   Wind: 8mph
Humidity: 100%   Direction: 230°SW
Pressure: 29.87"   Gusts: NA
Location:  44.8205°N, 89.392°W
Report Text: KCWA 250335Z AUTO 23007KT 7SM OVC006 12/12 A2987 RMK AO2
Loading
Personal Weather Stations






























Interactive Weather Map
Tropical Storm Tracking
New forecast layout! Learn more

10-Day Weather Forecast

Advertisements
Track Severe Weather on mobile